FLI7152 EKCH-GCFV
Flight info
| Callsign | FLI7152 |
|---|---|
| Flight time | N/A |
| Altitude | 34000 |
| Route | LANGO M611 ALASA DCT WANZA DCT GISEB DCT WOODY/N0445F350 N872 MEDIL DCT KOVIN DCT DUCRA UM728 RESMI UN857 DISAK DCT ARKIP DCT ARNAV DCT LMG DCT UVELI DCT OSMOB DCT VAVIX DCT NETUK N857 BANEV/N0451F370 N857 KORNO UN857 TERTO |
| Aircraft | A320/M-SDE3FGHIRWY/LB1 |
Departure
| Time | 2026-05-06 09:13 |
|---|---|
| Airport | Copenhagen Kastrup Airport (EKCH) |
Arrival
| Time | N/A |
|---|---|
| Airport | Fuerteventura Airport (GCFV) |
| Time | Latitude | Longitude | Altitude | Speed | Heading |
|---|---|---|---|---|---|
| 2026-05-06 09:03 | 55.62864 | 12.66572 | 17 ft | 3 kts | 131° |
| 2026-05-06 09:04 | 55.62881 | 12.66542 | 18 ft | 4 kts | 174° |
| 2026-05-06 09:04 | 55.62896 | 12.66553 | 18 ft | 1 kts | 221° |
| 2026-05-06 09:04 | 55.62897 | 12.66554 | 18 ft | 0 kts | 221° |
| 2026-05-06 09:05 | 55.62893 | 12.66548 | 18 ft | 3 kts | 221° |
| 2026-05-06 09:05 | 55.62849 | 12.66488 | 17 ft | 11 kts | 205° |
| 2026-05-06 09:06 | 55.62801 | 12.66403 | 17 ft | 11 kts | 222° |
| 2026-05-06 09:06 | 55.62733 | 12.66302 | 17 ft | 14 kts | 223° |
| 2026-05-06 09:06 | 55.62656 | 12.66178 | 17 ft | 15 kts | 220° |
| 2026-05-06 09:06 | 55.62599 | 12.66133 | 17 ft | 13 kts | 183° |
| 2026-05-06 09:07 | 55.62517 | 12.66179 | 17 ft | 13 kts | 139° |
| 2026-05-06 09:07 | 55.62424 | 12.66169 | 17 ft | 20 kts | 226° |
| 2026-05-06 09:07 | 55.62326 | 12.66014 | 17 ft | 18 kts | 223° |
| 2026-05-06 09:07 | 55.62299 | 12.65825 | 17 ft | 15 kts | 269° |
| 2026-05-06 09:08 | 55.62295 | 12.65600 | 17 ft | 13 kts | 269° |
| 2026-05-06 09:08 | 55.62294 | 12.65485 | 17 ft | 15 kts | 269° |
| 2026-05-06 09:08 | 55.62290 | 12.65273 | 17 ft | 17 kts | 265° |
| 2026-05-06 09:08 | 55.62197 | 12.65175 | 17 ft | 18 kts | 202° |
| 2026-05-06 09:09 | 55.62087 | 12.65043 | 18 ft | 19 kts | 213° |
| 2026-05-06 09:09 | 55.61984 | 12.64922 | 17 ft | 17 kts | 213° |
| 2026-05-06 09:09 | 55.61891 | 12.64815 | 17 ft | 15 kts | 213° |
| 2026-05-06 09:09 | 55.61805 | 12.64718 | 18 ft | 16 kts | 212° |
| 2026-05-06 09:10 | 55.61674 | 12.64567 | 17 ft | 25 kts | 212° |
| 2026-05-06 09:10 | 55.61536 | 12.64409 | 19 ft | 22 kts | 213° |
| 2026-05-06 09:10 | 55.61412 | 12.64265 | 18 ft | 20 kts | 213° |
| 2026-05-06 09:10 | 55.61286 | 12.64121 | 18 ft | 24 kts | 213° |
| 2026-05-06 09:11 | 55.61133 | 12.63944 | 19 ft | 28 kts | 213° |
| 2026-05-06 09:11 | 55.60972 | 12.63759 | 17 ft | 26 kts | 212° |
| 2026-05-06 09:11 | 55.60849 | 12.63615 | 17 ft | 18 kts | 213° |
| 2026-05-06 09:11 | 55.60756 | 12.63639 | 17 ft | 14 kts | 131° |
| 2026-05-06 09:12 | 55.60703 | 12.63757 | 17 ft | 11 kts | 132° |
| 2026-05-06 09:12 | 55.60668 | 12.63843 | 20 ft | 6 kts | 94° |
| 2026-05-06 09:12 | 55.60698 | 12.63906 | 19 ft | 14 kts | 41° |
| 2026-05-06 09:12 | 55.60955 | 12.64302 | 18 ft | 83 kts | 41° |
| 2026-05-06 09:13 | 55.61545 | 12.65211 | 17 ft | 139 kts | 41° |
| 2026-05-06 09:13 | 55.62344 | 12.66459 | 273 ft | 160 kts | 41° |
| 2026-05-06 09:13 | 55.63201 | 12.67828 | 873 ft | 171 kts | 42° |
| 2026-05-06 09:13 | 55.64096 | 12.69268 | 1574 ft | 176 kts | 44° |
| 2026-05-06 09:14 | 55.65014 | 12.70743 | 2073 ft | 184 kts | 44° |
| 2026-05-06 09:14 | 55.66018 | 12.72287 | 2412 ft | 200 kts | 42° |
| 2026-05-06 09:14 | 55.67154 | 12.73949 | 2668 ft | 223 kts | 41° |